createdAt,value
2023-05-22T05:00:26.374Z,54.67
2023-05-22T05:03:13.332Z,50.22
2023-05-22T05:06:01.422Z,47.95
2023-05-22T05:08:49.728Z,51.92
2023-05-22T05:11:36.055Z,58.38
2023-05-22T05:14:23.476Z,46.88
2023-05-22T05:36:39.445Z,42.28
2023-05-22T05:39:26.551Z,42.83
2023-05-22T05:42:12.944Z,44.35
2023-05-22T05:44:59.777Z,38.08
2023-05-22T05:47:47.978Z,39.92
2023-05-22T05:50:35.229Z,40.65
2023-05-22T05:53:23.515Z,38.28
2023-05-22T05:56:16.025Z,37.90
2023-05-22T05:59:02.626Z,37.20
2023-05-22T06:02:01.759Z,39.30
2023-05-22T06:04:51.622Z,36.65
2023-05-22T06:07:39.741Z,35.03
2023-05-22T06:10:28.916Z,36.93
2023-05-22T06:13:30.036Z,32.75
2023-05-22T06:16:16.626Z,38.50
2023-05-22T06:19:04.567Z,31.33
2023-05-22T06:21:52.238Z,29.23
2023-05-22T06:24:40.517Z,32.50
2023-05-22T06:27:33.926Z,31.95
2023-05-22T06:30:31.988Z,32.08
2023-05-22T06:33:27.819Z,32.00
2023-05-22T06:36:14.011Z,29.85
2023-05-22T06:39:00.048Z,27.35
2023-05-22T06:42:06.719Z,33.05
2023-05-22T06:45:14.731Z,31.80
2023-05-22T06:48:11.498Z,33.55
2023-05-22T06:51:06.936Z,29.55
2023-05-22T06:53:53.417Z,34.75
2023-05-22T06:56:44.074Z,34.65
2023-05-22T06:59:35.406Z,36.17
2023-05-22T07:02:26.279Z,36.45
2023-05-22T07:05:35.380Z,35.63
2023-05-22T07:08:22.570Z,35.70
2023-05-22T07:11:09.419Z,35.53
2023-05-22T07:13:56.075Z,32.90
2023-05-22T07:16:42.691Z,36.28
2023-05-22T07:19:30.944Z,34.35
2023-05-22T07:22:24.138Z,39.15
2023-05-22T07:25:10.814Z,30.02
2023-05-22T07:27:58.308Z,38.15
2023-05-22T07:30:45.693Z,29.23
2023-05-22T07:33:32.503Z,33.58
2023-05-22T07:36:21.112Z,31.58
2023-05-22T07:39:09.555Z,29.42
2023-05-22T07:41:59.503Z,34.28
2023-05-22T07:44:48.392Z,34.88
2023-05-22T07:47:36.880Z,33.05
2023-05-22T07:50:26.595Z,35.70
2023-05-22T07:53:14.940Z,33.08
2023-05-22T07:56:03.053Z,35.22
2023-05-22T07:58:50.949Z,30.05
2023-05-22T08:01:41.829Z,35.50
2023-05-22T08:04:30.052Z,33.42
2023-05-22T08:07:16.891Z,32.92
2023-05-22T08:10:09.014Z,32.03
2023-05-22T08:12:55.406Z,31.92
2023-05-22T08:15:41.655Z,32.90
2023-05-22T08:18:29.103Z,31.83
2023-05-22T08:21:16.177Z,27.40
2023-05-22T08:24:02.880Z,38.63
2023-05-22T08:26:50.525Z,34.35
2023-05-22T08:29:36.938Z,29.65
2023-05-22T08:32:23.812Z,22.73
2023-05-22T08:35:11.814Z,28.20
2023-05-22T08:37:57.981Z,31.90
2023-05-22T08:40:49.089Z,22.92
2023-05-22T08:43:36.682Z,27.25
2023-05-22T08:46:28.304Z,24.42
2023-05-22T08:49:14.941Z,20.35
2023-05-22T08:52:06.671Z,28.95
2023-05-22T08:54:56.416Z,25.35
2023-05-22T08:57:45.880Z,26.00
2023-05-22T09:00:34.311Z,20.88
2023-05-22T09:03:21.649Z,20.38
2023-05-22T09:06:10.256Z,20.27
2023-05-22T09:08:56.662Z,21.52
2023-05-22T09:11:43.403Z,19.83
2023-05-22T09:14:39.215Z,22.02
2023-05-22T09:17:27.533Z,21.48
2023-05-22T09:20:15.692Z,21.90
2023-05-22T09:23:03.798Z,22.42
2023-05-22T09:25:50.138Z,19.27
2023-05-22T09:28:38.159Z,19.45
2023-05-22T09:31:24.521Z,19.70
2023-05-22T09:34:14.746Z,20.27
2023-05-22T09:37:04.273Z,23.08
2023-05-22T09:39:54.437Z,26.38
2023-05-22T09:45:30.741Z,25.30
2023-05-22T09:48:18.544Z,19.65
2023-05-22T09:51:08.476Z,22.48
2023-05-22T09:54:03.750Z,20.27
2023-05-22T09:56:51.141Z,22.85
2023-05-22T09:59:40.193Z,25.25
2023-05-22T10:02:29.231Z,21.65
2023-05-22T10:05:21.638Z,29.40
2023-05-22T10:08:11.911Z,23.40
2023-05-22T10:10:58.997Z,20.35
2023-05-22T10:13:47.424Z,17.38
2023-05-22T13:35:46.067Z,23.25
2023-05-22T13:38:35.466Z,21.48
2023-05-22T13:41:22.273Z,20.13
2023-05-22T13:44:09.598Z,21.75
2023-05-22T13:46:56.286Z,24.10
2023-05-22T13:49:45.008Z,25.38
2023-05-22T13:52:32.847Z,18.17
2023-05-22T13:55:21.388Z,16.15
2023-05-22T13:58:08.219Z,20.35
2023-05-22T14:00:57.571Z,13.02
2023-05-22T14:04:12.456Z,18.00
2023-05-22T14:06:59.354Z,14.02
2023-05-22T14:09:49.878Z,16.63
2023-05-22T14:12:36.246Z,10.02
2023-05-22T14:15:24.200Z,11.90
2023-05-22T14:18:16.854Z,16.05
2023-05-22T14:21:04.737Z,13.13
2023-05-22T14:23:51.630Z,11.52
2023-05-22T14:26:40.382Z,12.57
2023-05-22T14:29:27.401Z,13.18
2023-05-22T14:32:13.484Z,11.05
2023-05-22T14:34:59.817Z,12.82
2023-05-22T14:37:46.883Z,10.82
2023-05-22T14:40:33.317Z,11.27
2023-05-22T14:43:21.948Z,9.15
2023-05-22T14:46:08.798Z,9.77
2023-05-22T14:48:55.368Z,8.80
2023-05-22T14:51:41.954Z,8.82
2023-05-22T14:54:32.391Z,10.80
2023-05-22T14:57:18.759Z,10.32
2023-05-22T16:02:28.881Z,8.77
2023-05-22T16:05:15.709Z,8.75
2023-05-22T16:08:02.447Z,10.57
2023-05-22T16:10:48.709Z,10.32
2023-05-22T16:13:35.276Z,10.35
2023-05-22T17:07:00.031Z,8.68
2023-05-22T17:10:13.924Z,9.45
2023-05-22T17:13:02.809Z,8.60
2023-05-22T17:15:49.817Z,9.17
2023-05-22T17:18:36.708Z,8.35
2023-05-22T17:21:24.175Z,11.13
2023-05-22T17:24:14.692Z,12.05
2023-05-22T17:27:03.423Z,8.73
2023-05-22T17:30:16.242Z,7.38
2023-05-22T17:33:03.689Z,9.20
2023-05-22T17:35:50.902Z,9.15
2023-05-22T17:38:39.252Z,6.53
2023-05-22T17:41:27.436Z,8.48
2023-05-22T17:44:14.228Z,9.07
2023-05-22T17:47:00.989Z,12.05
2023-05-22T17:49:47.299Z,8.30
2023-05-22T17:52:33.602Z,7.90
2023-05-22T17:55:20.878Z,8.57
2023-05-22T17:58:08.924Z,7.97
2023-05-22T18:00:55.349Z,6.32
2023-05-22T18:03:42.216Z,7.00
2023-05-22T18:06:29.147Z,12.27
2023-05-22T18:09:15.718Z,7.15
2023-05-22T18:12:03.578Z,7.38
2023-05-22T18:14:52.236Z,5.45
2023-05-22T18:17:38.889Z,8.77
2023-05-22T18:20:25.119Z,7.13
2023-05-22T18:23:11.524Z,8.07
2023-05-22T18:25:58.231Z,8.93
2023-05-22T18:28:44.783Z,6.97
2023-05-22T18:31:33.286Z,8.18
2023-05-22T18:34:19.857Z,7.70
2023-05-22T18:37:06.609Z,8.00
2023-05-22T18:39:52.978Z,9.35
2023-05-22T18:42:39.676Z,7.10
2023-05-22T18:45:26.422Z,6.57
2023-05-22T18:48:14.236Z,7.57
2023-05-22T18:51:01.236Z,9.30
2023-05-22T18:53:47.519Z,9.15
2023-05-22T18:56:34.086Z,7.65
2023-05-22T18:59:20.783Z,10.00
2023-05-22T19:48:43.980Z,12.32
2023-05-22T19:52:53.696Z,12.93
2023-05-22T22:02:58.884Z,10.68
2023-05-22T22:05:45.115Z,11.05
2023-05-22T22:08:31.973Z,14.52
2023-05-22T22:11:18.206Z,12.68
2023-05-22T22:14:04.872Z,11.35
